Terminal Aerodrome Forecast
Issued by NWS

Home | Current Version | Previous Version | Text Only | Print | Product List | Glossary On
Versions: 1 2 3 4 5 6 7 8 9 10 11 12
042
FTAK31 PAJN 220528
TAFASI
TAF
PASI 220528Z 2206/2306 VRB04KT P6SM VCSH SCT050
      TEMPO 2206/2210 4SM -SHSN SCT009 BKN030 OVC040
     FM221000 VRB03KT P6SM VCFG SCT005 SCT080
     FM221800 VRB03KT P6SM BKN080
     FM230300 10005KT 3SM -SHSN SCT030 OVC050=

USA.gov is the U.S. government's official web portal to all federal, state and local government web resources and services.